sensor_id;sensor_type;location;lat;lon;timestamp;P1;durP1;ratioP1;P2;durP2;ratioP2
5052;SDS011;2545;50.892;5.740;2022-09-03T00:00:05;5.20;;;3.13;;
5052;SDS011;2545;50.892;5.740;2022-09-03T00:02:37;8.13;;;2.57;;
5052;SDS011;2545;50.892;5.740;2022-09-03T00:08:10;7.27;;;3.03;;
5052;SDS011;2545;50.892;5.740;2022-09-03T00:10:52;3.73;;;2.40;;
5052;SDS011;2545;50.892;5.740;2022-09-03T00:13:28;15.00;;;3.17;;
5052;SDS011;2545;50.892;5.740;2022-09-03T00:15:58;6.30;;;2.93;;
5052;SDS011;2545;50.892;5.740;2022-09-03T00:18:28;3.50;;;2.40;;
5052;SDS011;2545;50.892;5.740;2022-09-03T00:20:58;8.60;;;2.20;;
5052;SDS011;2545;50.892;5.740;2022-09-03T00:23:32;8.23;;;2.33;;
5052;SDS011;2545;50.892;5.740;2022-09-03T00:26:21;2.93;;;1.97;;
5052;SDS011;2545;50.892;5.740;2022-09-03T00:28:56;4.17;;;2.00;;
5052;SDS011;2545;50.892;5.740;2022-09-03T00:31:36;6.37;;;2.47;;
5052;SDS011;2545;50.892;5.740;2022-09-03T00:34:20;19.20;;;2.53;;
5052;SDS011;2545;50.892;5.740;2022-09-03T00:36:51;3.40;;;2.27;;
5052;SDS011;2545;50.892;5.740;2022-09-03T00:39:18;13.73;;;2.40;;
5052;SDS011;2545;50.892;5.740;2022-09-03T00:44:47;3.60;;;2.37;;
5052;SDS011;2545;50.892;5.740;2022-09-03T00:50:03;11.90;;;2.30;;
5052;SDS011;2545;50.892;5.740;2022-09-03T00:58:17;4.40;;;1.77;;
5052;SDS011;2545;50.892;5.740;2022-09-03T01:00:55;2.90;;;1.73;;
5052;SDS011;2545;50.892;5.740;2022-09-03T01:06:27;5.93;;;2.57;;
5052;SDS011;2545;50.892;5.740;2022-09-03T01:11:54;3.57;;;2.00;;
5052;SDS011;2545;50.892;5.740;2022-09-03T01:14:30;3.93;;;2.17;;
5052;SDS011;2545;50.892;5.740;2022-09-03T01:17:12;4.03;;;2.13;;
5052;SDS011;2545;50.892;5.740;2022-09-03T01:19:50;11.13;;;2.07;;
5052;SDS011;2545;50.892;5.740;2022-09-03T01:30:44;4.37;;;2.10;;
5052;SDS011;2545;50.892;5.740;2022-09-03T01:36:09;11.73;;;3.00;;
5052;SDS011;2545;50.892;5.740;2022-09-03T01:38:55;16.37;;;3.50;;
5052;SDS011;2545;50.892;5.740;2022-09-03T01:44:43;13.50;;;2.60;;
5052;SDS011;2545;50.892;5.740;2022-09-03T01:50:25;9.43;;;3.27;;
5052;SDS011;2545;50.892;5.740;2022-09-03T01:58:45;9.33;;;3.47;;
5052;SDS011;2545;50.892;5.740;2022-09-03T02:01:22;15.37;;;3.07;;
5052;SDS011;2545;50.892;5.740;2022-09-03T02:03:54;7.17;;;2.40;;
5052;SDS011;2545;50.892;5.740;2022-09-03T02:06:24;12.63;;;3.20;;
5052;SDS011;2545;50.892;5.740;2022-09-03T02:08:53;7.03;;;3.30;;
5052;SDS011;2545;50.892;5.740;2022-09-03T02:11:19;5.57;;;3.03;;
5052;SDS011;2545;50.892;5.740;2022-09-03T02:13:46;13.40;;;2.93;;
5052;SDS011;2545;50.892;5.740;2022-09-03T02:16:16;7.53;;;3.20;;
5052;SDS011;2545;50.892;5.740;2022-09-03T02:18:51;7.23;;;2.57;;
5052;SDS011;2545;50.892;5.740;2022-09-03T02:21:20;7.90;;;2.37;;
5052;SDS011;2545;50.892;5.740;2022-09-03T02:23:48;10.43;;;2.73;;
5052;SDS011;2545;50.892;5.740;2022-09-03T02:26:15;9.27;;;3.13;;
5052;SDS011;2545;50.892;5.740;2022-09-03T02:28:45;7.93;;;2.40;;
5052;SDS011;2545;50.892;5.740;2022-09-03T02:31:10;4.20;;;2.20;;
5052;SDS011;2545;50.892;5.740;2022-09-03T02:33:37;8.53;;;2.17;;
5052;SDS011;2545;50.892;5.740;2022-09-03T02:36:06;11.43;;;2.30;;
5052;SDS011;2545;50.892;5.740;2022-09-03T02:38:34;4.77;;;2.70;;
5052;SDS011;2545;50.892;5.740;2022-09-03T02:40:59;9.10;;;2.90;;
5052;SDS011;2545;50.892;5.740;2022-09-03T02:43:33;4.43;;;2.43;;
5052;SDS011;2545;50.892;5.740;2022-09-03T02:46:04;4.93;;;2.47;;
5052;SDS011;2545;50.892;5.740;2022-09-03T02:48:33;11.90;;;2.90;;
5052;SDS011;2545;50.892;5.740;2022-09-03T02:50:59;9.07;;;2.47;;
5052;SDS011;2545;50.892;5.740;2022-09-03T02:53:25;7.10;;;2.40;;
5052;SDS011;2545;50.892;5.740;2022-09-03T02:55:56;11.30;;;2.57;;
5052;SDS011;2545;50.892;5.740;2022-09-03T02:58:23;3.00;;;2.07;;
5052;SDS011;2545;50.892;5.740;2022-09-03T03:00:48;3.07;;;2.17;;
5052;SDS011;2545;50.892;5.740;2022-09-03T03:03:13;4.60;;;2.60;;
5052;SDS011;2545;50.892;5.740;2022-09-03T03:05:52;4.47;;;2.10;;
5052;SDS011;2545;50.892;5.740;2022-09-03T03:08:20;8.80;;;2.10;;
5052;SDS011;2545;50.892;5.740;2022-09-03T03:10:50;5.00;;;2.50;;
5052;SDS011;2545;50.892;5.740;2022-09-03T03:13:16;5.80;;;1.90;;
5052;SDS011;2545;50.892;5.740;2022-09-03T03:15:42;5.47;;;2.23;;
5052;SDS011;2545;50.892;5.740;2022-09-03T03:18:08;2.70;;;2.00;;
5052;SDS011;2545;50.892;5.740;2022-09-03T03:20:36;5.80;;;2.20;;
5052;SDS011;2545;50.892;5.740;2022-09-03T03:23:02;4.47;;;2.33;;
5052;SDS011;2545;50.892;5.740;2022-09-03T03:25:31;3.83;;;2.60;;
5052;SDS011;2545;50.892;5.740;2022-09-03T03:27:56;6.27;;;2.47;;
5052;SDS011;2545;50.892;5.740;2022-09-03T03:30:22;5.33;;;1.80;;
5052;SDS011;2545;50.892;5.740;2022-09-03T03:32:48;5.03;;;2.20;;
5052;SDS011;2545;50.892;5.740;2022-09-03T03:35:13;9.10;;;2.90;;
5052;SDS011;2545;50.892;5.740;2022-09-03T03:37:38;5.20;;;1.93;;
5052;SDS011;2545;50.892;5.740;2022-09-03T03:40:04;5.93;;;1.97;;
5052;SDS011;2545;50.892;5.740;2022-09-03T03:42:32;3.47;;;1.80;;
5052;SDS011;2545;50.892;5.740;2022-09-03T03:44:58;4.00;;;2.37;;
5052;SDS011;2545;50.892;5.740;2022-09-03T03:47:24;4.60;;;2.53;;
5052;SDS011;2545;50.892;5.740;2022-09-03T03:49:49;2.53;;;2.03;;
5052;SDS011;2545;50.892;5.740;2022-09-03T03:52:14;2.67;;;1.87;;
5052;SDS011;2545;50.892;5.740;2022-09-03T03:54:39;6.00;;;2.33;;
5052;SDS011;2545;50.892;5.740;2022-09-03T03:57:05;5.27;;;1.87;;
5052;SDS011;2545;50.892;5.740;2022-09-03T03:59:30;10.80;;;2.30;;
5052;SDS011;2545;50.892;5.740;2022-09-03T04:01:55;2.60;;;1.83;;
5052;SDS011;2545;50.892;5.740;2022-09-03T04:04:21;2.30;;;1.80;;
5052;SDS011;2545;50.892;5.740;2022-09-03T04:06:46;3.13;;;2.03;;
5052;SDS011;2545;50.892;5.740;2022-09-03T04:09:11;12.27;;;3.10;;
5052;SDS011;2545;50.892;5.740;2022-09-03T04:11:36;3.93;;;2.50;;
5052;SDS011;2545;50.892;5.740;2022-09-03T04:14:02;4.73;;;2.50;;
5052;SDS011;2545;50.892;5.740;2022-09-03T04:16:28;14.03;;;2.57;;
5052;SDS011;2545;50.892;5.740;2022-09-03T04:18:54;8.47;;;3.97;;
5052;SDS011;2545;50.892;5.740;2022-09-03T04:21:27;10.00;;;2.53;;
5052;SDS011;2545;50.892;5.740;2022-09-03T04:23:54;6.90;;;2.50;;
5052;SDS011;2545;50.892;5.740;2022-09-03T04:26:30;3.30;;;2.70;;
5052;SDS011;2545;50.892;5.740;2022-09-03T04:28:57;2.43;;;1.97;;
5052;SDS011;2545;50.892;5.740;2022-09-03T04:31:23;8.20;;;2.40;;
5052;SDS011;2545;50.892;5.740;2022-09-03T04:33:48;3.13;;;2.60;;
5052;SDS011;2545;50.892;5.740;2022-09-03T04:36:16;4.93;;;2.50;;
5052;SDS011;2545;50.892;5.740;2022-09-03T04:38:43;3.63;;;2.40;;
5052;SDS011;2545;50.892;5.740;2022-09-03T04:41:12;7.20;;;2.83;;
5052;SDS011;2545;50.892;5.740;2022-09-03T04:43:40;4.80;;;2.53;;
5052;SDS011;2545;50.892;5.740;2022-09-03T04:46:07;6.00;;;2.73;;
5052;SDS011;2545;50.892;5.740;2022-09-03T04:48:35;3.83;;;2.30;;
5052;SDS011;2545;50.892;5.740;2022-09-03T04:51:04;4.23;;;2.30;;
5052;SDS011;2545;50.892;5.740;2022-09-03T04:53:33;5.47;;;2.40;;
5052;SDS011;2545;50.892;5.740;2022-09-03T04:56:00;4.53;;;2.33;;
5052;SDS011;2545;50.892;5.740;2022-09-03T04:58:26;2.70;;;2.27;;
5052;SDS011;2545;50.892;5.740;2022-09-03T05:00:52;4.80;;;2.07;;
5052;SDS011;2545;50.892;5.740;2022-09-03T05:03:17;2.90;;;2.10;;
5052;SDS011;2545;50.892;5.740;2022-09-03T05:05:50;5.73;;;2.67;;
5052;SDS011;2545;50.892;5.740;2022-09-03T05:08:16;13.33;;;3.03;;
5052;SDS011;2545;50.892;5.740;2022-09-03T05:10:42;7.53;;;2.40;;
5052;SDS011;2545;50.892;5.740;2022-09-03T05:13:07;3.03;;;2.30;;
5052;SDS011;2545;50.892;5.740;2022-09-03T05:15:33;2.93;;;2.30;;
5052;SDS011;2545;50.892;5.740;2022-09-03T05:17:58;4.67;;;2.60;;
5052;SDS011;2545;50.892;5.740;2022-09-03T05:20:28;4.53;;;2.47;;
5052;SDS011;2545;50.892;5.740;2022-09-03T05:22:55;5.93;;;1.80;;
5052;SDS011;2545;50.892;5.740;2022-09-03T05:25:21;3.30;;;2.07;;
5052;SDS011;2545;50.892;5.740;2022-09-03T05:27:48;9.10;;;2.20;;
5052;SDS011;2545;50.892;5.740;2022-09-03T05:30:13;3.37;;;2.30;;
5052;SDS011;2545;50.892;5.740;2022-09-03T05:32:39;10.80;;;2.10;;
5052;SDS011;2545;50.892;5.740;2022-09-03T05:35:05;7.40;;;2.70;;
5052;SDS011;2545;50.892;5.740;2022-09-03T05:37:31;7.90;;;2.33;;
5052;SDS011;2545;50.892;5.740;2022-09-03T05:39:57;3.43;;;1.87;;
5052;SDS011;2545;50.892;5.740;2022-09-03T05:42:22;10.97;;;2.60;;
5052;SDS011;2545;50.892;5.740;2022-09-03T05:44:47;8.67;;;2.20;;
5052;SDS011;2545;50.892;5.740;2022-09-03T05:47:13;3.57;;;2.30;;
5052;SDS011;2545;50.892;5.740;2022-09-03T05:49:39;5.77;;;2.30;;
5052;SDS011;2545;50.892;5.740;2022-09-03T05:52:05;9.70;;;2.40;;
5052;SDS011;2545;50.892;5.740;2022-09-03T05:54:30;4.37;;;2.17;;
5052;SDS011;2545;50.892;5.740;2022-09-03T05:56:56;9.90;;;2.63;;
5052;SDS011;2545;50.892;5.740;2022-09-03T05:59:21;3.00;;;2.13;;
5052;SDS011;2545;50.892;5.740;2022-09-03T06:01:46;4.30;;;2.10;;
5052;SDS011;2545;50.892;5.740;2022-09-03T06:04:14;9.10;;;2.90;;
5052;SDS011;2545;50.892;5.740;2022-09-03T06:06:44;12.43;;;2.50;;
5052;SDS011;2545;50.892;5.740;2022-09-03T06:09:12;13.57;;;3.00;;
5052;SDS011;2545;50.892;5.740;2022-09-03T06:11:40;7.80;;;3.30;;
5052;SDS011;2545;50.892;5.740;2022-09-03T06:14:07;6.53;;;2.80;;
5052;SDS011;2545;50.892;5.740;2022-09-03T06:16:34;11.10;;;3.30;;
5052;SDS011;2545;50.892;5.740;2022-09-03T06:19:02;8.67;;;2.90;;
5052;SDS011;2545;50.892;5.740;2022-09-03T06:21:27;6.07;;;2.70;;
5052;SDS011;2545;50.892;5.740;2022-09-03T06:23:55;8.27;;;3.23;;
5052;SDS011;2545;50.892;5.740;2022-09-03T06:26:21;5.40;;;2.73;;
5052;SDS011;2545;50.892;5.740;2022-09-03T06:28:47;6.53;;;3.07;;
5052;SDS011;2545;50.892;5.740;2022-09-03T06:31:14;9.23;;;3.13;;
5052;SDS011;2545;50.892;5.740;2022-09-03T06:33:40;13.10;;;3.80;;
5052;SDS011;2545;50.892;5.740;2022-09-03T06:36:07;6.50;;;2.77;;
5052;SDS011;2545;50.892;5.740;2022-09-03T06:38:36;3.87;;;2.70;;
5052;SDS011;2545;50.892;5.740;2022-09-03T06:41:03;9.43;;;2.70;;
5052;SDS011;2545;50.892;5.740;2022-09-03T06:43:30;5.63;;;2.90;;
5052;SDS011;2545;50.892;5.740;2022-09-03T06:46:01;5.00;;;2.80;;
5052;SDS011;2545;50.892;5.740;2022-09-03T06:48:30;10.50;;;2.93;;
5052;SDS011;2545;50.892;5.740;2022-09-03T06:50:57;7.10;;;2.93;;
5052;SDS011;2545;50.892;5.740;2022-09-03T06:53:25;5.47;;;2.40;;
5052;SDS011;2545;50.892;5.740;2022-09-03T06:55:56;10.40;;;2.80;;
5052;SDS011;2545;50.892;5.740;2022-09-03T06:58:24;14.83;;;3.70;;
5052;SDS011;2545;50.892;5.740;2022-09-03T07:00:53;9.00;;;3.17;;
5052;SDS011;2545;50.892;5.740;2022-09-03T07:03:19;6.83;;;2.60;;
5052;SDS011;2545;50.892;5.740;2022-09-03T07:05:45;6.27;;;2.60;;
5052;SDS011;2545;50.892;5.740;2022-09-03T07:08:11;4.00;;;2.70;;
5052;SDS011;2545;50.892;5.740;2022-09-03T07:10:37;17.23;;;2.73;;
5052;SDS011;2545;50.892;5.740;2022-09-03T07:13:03;16.57;;;3.40;;
5052;SDS011;2545;50.892;5.740;2022-09-03T07:15:30;11.03;;;2.47;;
5052;SDS011;2545;50.892;5.740;2022-09-03T07:17:56;10.10;;;2.60;;
5052;SDS011;2545;50.892;5.740;2022-09-03T07:20:22;6.63;;;2.53;;
5052;SDS011;2545;50.892;5.740;2022-09-03T07:22:47;6.60;;;2.70;;
5052;SDS011;2545;50.892;5.740;2022-09-03T07:25:13;4.93;;;2.53;;
5052;SDS011;2545;50.892;5.740;2022-09-03T07:27:38;5.20;;;2.40;;
5052;SDS011;2545;50.892;5.740;2022-09-03T07:30:04;11.30;;;2.67;;
5052;SDS011;2545;50.892;5.740;2022-09-03T07:32:33;3.37;;;2.53;;
5052;SDS011;2545;50.892;5.740;2022-09-03T07:35:01;8.23;;;2.43;;
5052;SDS011;2545;50.892;5.740;2022-09-03T07:37:27;5.97;;;2.40;;
5052;SDS011;2545;50.892;5.740;2022-09-03T07:39:52;8.37;;;2.90;;
5052;SDS011;2545;50.892;5.740;2022-09-03T07:42:18;8.50;;;2.30;;
5052;SDS011;2545;50.892;5.740;2022-09-03T07:44:44;4.87;;;2.47;;
5052;SDS011;2545;50.892;5.740;2022-09-03T07:47:10;4.73;;;2.40;;
5052;SDS011;2545;50.892;5.740;2022-09-03T07:49:35;9.53;;;2.23;;
5052;SDS011;2545;50.892;5.740;2022-09-03T07:52:00;4.73;;;1.97;;
5052;SDS011;2545;50.892;5.740;2022-09-03T07:54:26;7.77;;;2.60;;
5052;SDS011;2545;50.892;5.740;2022-09-03T07:56:52;8.07;;;2.43;;
5052;SDS011;2545;50.892;5.740;2022-09-03T07:59:17;3.50;;;2.40;;
5052;SDS011;2545;50.892;5.740;2022-09-03T08:01:44;3.07;;;2.20;;
5052;SDS011;2545;50.892;5.740;2022-09-03T08:04:09;6.00;;;2.10;;
5052;SDS011;2545;50.892;5.740;2022-09-03T08:06:36;3.30;;;2.40;;
5052;SDS011;2545;50.892;5.740;2022-09-03T08:09:03;6.93;;;2.27;;
5052;SDS011;2545;50.892;5.740;2022-09-03T08:11:31;4.47;;;2.07;;
5052;SDS011;2545;50.892;5.740;2022-09-03T08:13:59;6.37;;;2.40;;
5052;SDS011;2545;50.892;5.740;2022-09-03T08:16:30;8.83;;;2.63;;
5052;SDS011;2545;50.892;5.740;2022-09-03T08:18:57;4.20;;;2.40;;
5052;SDS011;2545;50.892;5.740;2022-09-03T08:21:22;3.70;;;2.50;;
5052;SDS011;2545;50.892;5.740;2022-09-03T08:23:49;6.70;;;2.50;;
5052;SDS011;2545;50.892;5.740;2022-09-03T08:26:17;3.43;;;2.30;;
5052;SDS011;2545;50.892;5.740;2022-09-03T08:28:43;4.50;;;2.40;;
5052;SDS011;2545;50.892;5.740;2022-09-03T08:31:19;11.00;;;3.03;;
5052;SDS011;2545;50.892;5.740;2022-09-03T08:33:47;11.63;;;2.77;;
5052;SDS011;2545;50.892;5.740;2022-09-03T08:38:50;4.30;;;2.53;;
5052;SDS011;2545;50.892;5.740;2022-09-03T08:52:46;4.27;;;2.53;;
5052;SDS011;2545;50.892;5.740;2022-09-03T08:55:15;3.20;;;2.17;;
5052;SDS011;2545;50.892;5.740;2022-09-03T08:57:42;8.00;;;2.43;;
5052;SDS011;2545;50.892;5.740;2022-09-03T09:00:12;6.80;;;2.77;;
5052;SDS011;2545;50.892;5.740;2022-09-03T09:02:45;4.53;;;2.23;;
5052;SDS011;2545;50.892;5.740;2022-09-03T09:05:24;6.50;;;2.70;;
5052;SDS011;2545;50.892;5.740;2022-09-03T09:14:14;4.30;;;2.70;;
5052;SDS011;2545;50.892;5.740;2022-09-03T09:17:07;5.10;;;3.00;;
5052;SDS011;2545;50.892;5.740;2022-09-03T09:22:37;8.13;;;3.10;;
5052;SDS011;2545;50.892;5.740;2022-09-03T09:25:07;6.10;;;2.77;;
5052;SDS011;2545;50.892;5.740;2022-09-03T09:27:40;4.63;;;2.93;;
5052;SDS011;2545;50.892;5.740;2022-09-03T09:30:15;5.30;;;3.20;;
5052;SDS011;2545;50.892;5.740;2022-09-03T09:32:42;10.33;;;4.13;;
5052;SDS011;2545;50.892;5.740;2022-09-03T09:35:08;8.23;;;5.07;;
5052;SDS011;2545;50.892;5.740;2022-09-03T09:37:34;6.00;;;4.20;;
5052;SDS011;2545;50.892;5.740;2022-09-03T09:40:20;11.53;;;4.33;;
5052;SDS011;2545;50.892;5.740;2022-09-03T09:45:41;8.50;;;2.67;;
5052;SDS011;2545;50.892;5.740;2022-09-03T09:48:51;4.63;;;3.00;;
5052;SDS011;2545;50.892;5.740;2022-09-03T09:56:36;9.27;;;2.83;;
5052;SDS011;2545;50.892;5.740;2022-09-03T09:59:04;3.50;;;3.07;;
5052;SDS011;2545;50.892;5.740;2022-09-03T10:01:31;8.97;;;3.20;;
5052;SDS011;2545;50.892;5.740;2022-09-03T10:04:20;4.20;;;2.97;;
5052;SDS011;2545;50.892;5.740;2022-09-03T10:06:55;9.27;;;3.57;;
5052;SDS011;2545;50.892;5.740;2022-09-03T10:09:28;11.13;;;3.27;;
5052;SDS011;2545;50.892;5.740;2022-09-03T10:14:56;8.20;;;3.40;;
5052;SDS011;2545;50.892;5.740;2022-09-03T10:23:23;4.50;;;2.97;;
5052;SDS011;2545;50.892;5.740;2022-09-03T10:28:31;5.70;;;3.30;;
5052;SDS011;2545;50.892;5.740;2022-09-03T10:31:12;6.53;;;3.30;;
5052;SDS011;2545;50.892;5.740;2022-09-03T10:34:20;4.43;;;3.30;;
5052;SDS011;2545;50.892;5.740;2022-09-03T10:36:59;11.10;;;3.20;;
5052;SDS011;2545;50.892;5.740;2022-09-03T10:42:32;7.07;;;3.40;;
5052;SDS011;2545;50.892;5.740;2022-09-03T10:53:29;13.20;;;3.43;;
5052;SDS011;2545;50.892;5.740;2022-09-03T11:04:29;9.80;;;2.90;;
5052;SDS011;2545;50.892;5.740;2022-09-03T11:07:09;4.03;;;2.63;;
5052;SDS011;2545;50.892;5.740;2022-09-03T11:09:38;3.67;;;2.70;;
5052;SDS011;2545;50.892;5.740;2022-09-03T11:12:16;3.70;;;2.00;;
5052;SDS011;2545;50.892;5.740;2022-09-03T11:14:55;3.17;;;2.37;;
5052;SDS011;2545;50.892;5.740;2022-09-03T11:17:28;8.63;;;3.07;;
5052;SDS011;2545;50.892;5.740;2022-09-03T11:22:44;2.88;;;2.60;;
5052;SDS011;2545;50.892;5.740;2022-09-03T11:25:12;9.25;;;2.42;;
5052;SDS011;2545;50.892;5.740;2022-09-03T11:30:05;4.47;;;2.58;;
5052;SDS011;2545;50.892;5.740;2022-09-03T11:32:46;2.92;;;2.17;;
5052;SDS011;2545;50.892;5.740;2022-09-03T11:35:27;7.07;;;2.10;;
5052;SDS011;2545;50.892;5.740;2022-09-03T11:38:03;4.90;;;2.30;;
5052;SDS011;2545;50.892;5.740;2022-09-03T11:40:31;2.70;;;2.03;;
5052;SDS011;2545;50.892;5.740;2022-09-03T11:43:12;3.33;;;2.10;;
5052;SDS011;2545;50.892;5.740;2022-09-03T11:46:03;7.68;;;2.70;;
5052;SDS011;2545;50.892;5.740;2022-09-03T11:48:49;2.33;;;2.13;;
5052;SDS011;2545;50.892;5.740;2022-09-03T11:54:00;3.90;;;2.53;;
5052;SDS011;2545;50.892;5.740;2022-09-03T11:56:29;2.65;;;2.30;;
5052;SDS011;2545;50.892;5.740;2022-09-03T11:59:03;6.57;;;2.78;;
5052;SDS011;2545;50.892;5.740;2022-09-03T12:01:30;4.82;;;2.08;;
5052;SDS011;2545;50.892;5.740;2022-09-03T12:03:58;2.75;;;2.20;;
5052;SDS011;2545;50.892;5.740;2022-09-03T12:06:32;2.67;;;2.15;;
5052;SDS011;2545;50.892;5.740;2022-09-03T12:15:08;4.15;;;2.55;;
5052;SDS011;2545;50.892;5.740;2022-09-03T12:17:54;3.17;;;2.67;;
5052;SDS011;2545;50.892;5.740;2022-09-03T12:20:41;3.05;;;2.10;;
5052;SDS011;2545;50.892;5.740;2022-09-03T12:23:10;2.92;;;2.30;;
5052;SDS011;2545;50.892;5.740;2022-09-03T12:25:50;2.53;;;2.33;;
5052;SDS011;2545;50.892;5.740;2022-09-03T12:28:18;4.15;;;2.13;;
5052;SDS011;2545;50.892;5.740;2022-09-03T12:30:50;4.53;;;2.53;;
5052;SDS011;2545;50.892;5.740;2022-09-03T12:33:18;6.35;;;2.70;;
5052;SDS011;2545;50.892;5.740;2022-09-03T12:36:00;6.37;;;2.60;;
5052;SDS011;2545;50.892;5.740;2022-09-03T12:38:26;5.70;;;2.80;;
5052;SDS011;2545;50.892;5.740;2022-09-03T12:40:53;10.93;;;3.07;;
5052;SDS011;2545;50.892;5.740;2022-09-03T12:43:19;8.30;;;3.33;;
5052;SDS011;2545;50.892;5.740;2022-09-03T12:45:50;5.40;;;2.87;;
5052;SDS011;2545;50.892;5.740;2022-09-03T12:48:17;3.50;;;3.07;;
5052;SDS011;2545;50.892;5.740;2022-09-03T12:50:44;3.73;;;3.03;;
5052;SDS011;2545;50.892;5.740;2022-09-03T12:53:16;4.00;;;2.93;;
5052;SDS011;2545;50.892;5.740;2022-09-03T12:55:53;6.37;;;2.40;;
5052;SDS011;2545;50.892;5.740;2022-09-03T12:58:24;6.40;;;3.27;;
5052;SDS011;2545;50.892;5.740;2022-09-03T13:01:11;5.03;;;3.30;;
5052;SDS011;2545;50.892;5.740;2022-09-03T13:03:48;5.57;;;2.80;;
5052;SDS011;2545;50.892;5.740;2022-09-03T13:06:20;3.07;;;2.77;;
5052;SDS011;2545;50.892;5.740;2022-09-03T13:08:49;5.40;;;2.70;;
5052;SDS011;2545;50.892;5.740;2022-09-03T13:11:19;4.40;;;3.13;;
5052;SDS011;2545;50.892;5.740;2022-09-03T13:13:51;3.50;;;3.20;;
5052;SDS011;2545;50.892;5.740;2022-09-03T13:16:32;4.73;;;3.67;;
5052;SDS011;2545;50.892;5.740;2022-09-03T13:19:05;5.67;;;3.80;;
5052;SDS011;2545;50.892;5.740;2022-09-03T13:30:20;4.47;;;3.83;;
5052;SDS011;2545;50.892;5.740;2022-09-03T13:38:14;9.13;;;2.57;;
5052;SDS011;2545;50.892;5.740;2022-09-03T13:43:53;6.90;;;3.13;;
5052;SDS011;2545;50.892;5.740;2022-09-03T13:46:28;3.40;;;2.53;;
5052;SDS011;2545;50.892;5.740;2022-09-03T13:49:07;3.43;;;2.60;;
5052;SDS011;2545;50.892;5.740;2022-09-03T13:51:59;8.00;;;2.77;;
5052;SDS011;2545;50.892;5.740;2022-09-03T13:54:35;6.83;;;3.10;;
5052;SDS011;2545;50.892;5.740;2022-09-03T13:59:59;2.80;;;2.60;;
5052;SDS011;2545;50.892;5.740;2022-09-03T14:02:42;6.90;;;2.80;;
5052;SDS011;2545;50.892;5.740;2022-09-03T14:13:47;5.63;;;3.50;;
5052;SDS011;2545;50.892;5.740;2022-09-03T14:16:46;3.63;;;2.90;;
5052;SDS011;2545;50.892;5.740;2022-09-03T14:19:31;5.37;;;3.13;;
5052;SDS011;2545;50.892;5.740;2022-09-03T14:25:00;7.17;;;2.90;;
5052;SDS011;2545;50.892;5.740;2022-09-03T14:27:29;8.70;;;3.43;;
5052;SDS011;2545;50.892;5.740;2022-09-03T14:30:00;8.90;;;2.90;;
5052;SDS011;2545;50.892;5.740;2022-09-03T14:32:43;6.27;;;2.70;;
5052;SDS011;2545;50.892;5.740;2022-09-03T14:54:41;7.80;;;2.40;;
5052;SDS011;2545;50.892;5.740;2022-09-03T15:05:39;9.57;;;3.03;;
5052;SDS011;2545;50.892;5.740;2022-09-03T15:10:45;2.10;;;1.90;;
5052;SDS011;2545;50.892;5.740;2022-09-03T15:13:16;3.78;;;2.58;;
5052;SDS011;2545;50.892;5.740;2022-09-03T15:18:28;3.15;;;2.30;;
5052;SDS011;2545;50.892;5.740;2022-09-03T15:24:05;4.63;;;2.40;;
5052;SDS011;2545;50.892;5.740;2022-09-03T15:29:22;9.02;;;2.30;;
5052;SDS011;2545;50.892;5.740;2022-09-03T15:32:17;3.90;;;2.40;;
5052;SDS011;2545;50.892;5.740;2022-09-03T15:37:31;4.78;;;2.28;;
5052;SDS011;2545;50.892;5.740;2022-09-03T15:40:07;2.20;;;1.92;;
5052;SDS011;2545;50.892;5.740;2022-09-03T15:43:02;2.20;;;2.00;;
5052;SDS011;2545;50.892;5.740;2022-09-03T15:48:26;4.53;;;2.13;;
5052;SDS011;2545;50.892;5.740;2022-09-03T15:53:51;2.42;;;1.80;;
5052;SDS011;2545;50.892;5.740;2022-09-03T15:56:34;3.45;;;2.30;;
5052;SDS011;2545;50.892;5.740;2022-09-03T15:59:18;1.92;;;1.80;;
5052;SDS011;2545;50.892;5.740;2022-09-03T16:09:50;5.35;;;2.72;;
5052;SDS011;2545;50.892;5.740;2022-09-03T16:14:59;2.20;;;2.00;;
5052;SDS011;2545;50.892;5.740;2022-09-03T16:17:28;3.47;;;2.43;;
5052;SDS011;2545;50.892;5.740;2022-09-03T16:20:03;2.47;;;2.27;;
5052;SDS011;2545;50.892;5.740;2022-09-03T16:22:37;5.50;;;2.63;;
5052;SDS011;2545;50.892;5.740;2022-09-03T16:27:54;4.10;;;2.83;;
5052;SDS011;2545;50.892;5.740;2022-09-03T16:44:18;5.43;;;2.20;;
5052;SDS011;2545;50.892;5.740;2022-09-03T17:04:15;2.92;;;2.10;;
5052;SDS011;2545;50.892;5.740;2022-09-03T17:06:55;3.90;;;2.50;;
5052;SDS011;2545;50.892;5.740;2022-09-03T17:12:34;4.45;;;2.55;;
5052;SDS011;2545;50.892;5.740;2022-09-03T17:20:43;4.70;;;3.10;;
5052;SDS011;2545;50.892;5.740;2022-09-03T17:36:35;5.43;;;3.30;;
5052;SDS011;2545;50.892;5.740;2022-09-03T17:41:53;6.07;;;3.47;;
5052;SDS011;2545;50.892;5.740;2022-09-03T17:50:22;3.57;;;3.10;;
5052;SDS011;2545;50.892;5.740;2022-09-03T17:52:53;5.90;;;3.50;;
5052;SDS011;2545;50.892;5.740;2022-09-03T17:55:37;3.83;;;3.30;;
5052;SDS011;2545;50.892;5.740;2022-09-03T17:58:16;9.03;;;3.20;;
5052;SDS011;2545;50.892;5.740;2022-09-03T18:01:00;5.83;;;3.30;;
5052;SDS011;2545;50.892;5.740;2022-09-03T18:03:53;5.73;;;4.20;;
5052;SDS011;2545;50.892;5.740;2022-09-03T18:06:31;8.13;;;5.13;;
5052;SDS011;2545;50.892;5.740;2022-09-03T18:09:08;10.37;;;4.30;;
5052;SDS011;2545;50.892;5.740;2022-09-03T18:11:49;4.37;;;3.07;;
5052;SDS011;2545;50.892;5.740;2022-09-03T18:14:22;6.10;;;3.73;;
5052;SDS011;2545;50.892;5.740;2022-09-03T18:19:38;6.97;;;3.50;;
5052;SDS011;2545;50.892;5.740;2022-09-03T18:22:39;5.80;;;3.50;;
5052;SDS011;2545;50.892;5.740;2022-09-03T18:25:32;8.70;;;3.40;;
5052;SDS011;2545;50.892;5.740;2022-09-03T18:28:20;4.10;;;3.20;;
5052;SDS011;2545;50.892;5.740;2022-09-03T18:31:14;5.90;;;3.70;;
5052;SDS011;2545;50.892;5.740;2022-09-03T18:33:59;7.00;;;2.70;;
5052;SDS011;2545;50.892;5.740;2022-09-03T18:36:45;4.70;;;3.10;;
5052;SDS011;2545;50.892;5.740;2022-09-03T18:39:29;4.17;;;3.20;;
5052;SDS011;2545;50.892;5.740;2022-09-03T18:42:26;3.70;;;3.20;;
5052;SDS011;2545;50.892;5.740;2022-09-03T18:45:18;4.77;;;3.13;;
5052;SDS011;2545;50.892;5.740;2022-09-03T18:48:21;6.77;;;3.20;;
5052;SDS011;2545;50.892;5.740;2022-09-03T18:54:30;4.27;;;3.40;;
5052;SDS011;2545;50.892;5.740;2022-09-03T18:57:20;4.03;;;3.00;;
5052;SDS011;2545;50.892;5.740;2022-09-03T19:00:09;17.73;;;4.47;;
5052;SDS011;2545;50.892;5.740;2022-09-03T19:06:04;5.13;;;4.63;;
5052;SDS011;2545;50.892;5.740;2022-09-03T19:08:57;4.97;;;3.63;;
5052;SDS011;2545;50.892;5.740;2022-09-03T19:21:28;5.00;;;4.03;;
5052;SDS011;2545;50.892;5.740;2022-09-03T19:24:19;9.83;;;4.30;;
5052;SDS011;2545;50.892;5.740;2022-09-03T19:27:12;9.10;;;4.50;;
5052;SDS011;2545;50.892;5.740;2022-09-03T19:30:08;9.47;;;4.00;;
5052;SDS011;2545;50.892;5.740;2022-09-03T19:33:07;5.47;;;4.50;;
5052;SDS011;2545;50.892;5.740;2022-09-03T19:36:03;7.53;;;4.23;;
5052;SDS011;2545;50.892;5.740;2022-09-03T19:42:04;6.93;;;3.90;;
5052;SDS011;2545;50.892;5.740;2022-09-03T19:47:57;5.83;;;4.67;;
5052;SDS011;2545;50.892;5.740;2022-09-03T19:51:37;8.83;;;3.90;;
5052;SDS011;2545;50.892;5.740;2022-09-03T19:54:03;7.87;;;4.37;;
5052;SDS011;2545;50.892;5.740;2022-09-03T19:56:49;10.10;;;4.10;;
5052;SDS011;2545;50.892;5.740;2022-09-03T19:59:36;5.23;;;3.80;;
5052;SDS011;2545;50.892;5.740;2022-09-03T20:02:22;5.87;;;3.77;;
5052;SDS011;2545;50.892;5.740;2022-09-03T20:05:09;9.57;;;4.00;;
5052;SDS011;2545;50.892;5.740;2022-09-03T20:07:55;10.37;;;4.37;;
5052;SDS011;2545;50.892;5.740;2022-09-03T20:10:41;7.73;;;4.13;;
5052;SDS011;2545;50.892;5.740;2022-09-03T20:13:11;13.10;;;4.00;;
5052;SDS011;2545;50.892;5.740;2022-09-03T20:21:14;4.53;;;3.60;;
5052;SDS011;2545;50.892;5.740;2022-09-03T20:27:02;6.90;;;4.13;;
5052;SDS011;2545;50.892;5.740;2022-09-03T20:35:38;7.37;;;4.07;;
5052;SDS011;2545;50.892;5.740;2022-09-03T20:54:35;7.00;;;3.53;;
5052;SDS011;2545;50.892;5.740;2022-09-03T20:57:17;6.10;;;3.47;;
5052;SDS011;2545;50.892;5.740;2022-09-03T21:00:03;6.37;;;3.97;;
5052;SDS011;2545;50.892;5.740;2022-09-03T21:05:34;5.47;;;4.17;;
5052;SDS011;2545;50.892;5.740;2022-09-03T21:08:13;5.00;;;4.27;;
5052;SDS011;2545;50.892;5.740;2022-09-03T21:14:02;6.20;;;3.70;;
5052;SDS011;2545;50.892;5.740;2022-09-03T21:19:33;8.87;;;3.70;;
5052;SDS011;2545;50.892;5.740;2022-09-03T21:22:14;6.00;;;3.70;;
5052;SDS011;2545;50.892;5.740;2022-09-03T21:27:15;5.70;;;4.10;;
5052;SDS011;2545;50.892;5.740;2022-09-03T21:29:46;5.73;;;3.33;;